Orlo Vista, Florida
Current Conditions -  °F | °C
As of 6:53 PM on Friday 28 Nov 2014 (Local Time) from KORL Reporting Station
Clear Clear  
Wind Chill: 54°   Ceiling: Unl
Heat Index: 54°   Visibility: 10mi
Dew Point: 42°   Wind: 9mph
Humidity: 64%   Direction: 10°N
Pressure: 30.27"   Gusts: NA
Location:  28.5173°N, 81.4447°W
Report Text: KORL 282353Z 01008KT 10SM CLR 12/06 A3027 RMK AO2 SLP256 T01220056 10167 20122 51005
Loading
Personal Weather Stations






























Interactive Weather Map New forecast layout! Learn more

10-Day Weather Forecast

Advertisements
Track Severe Weather on mobile